Impacts METAR Board
IDs:

KPKV - Port Lavaca/Calhoun, TX, US

Updated at: 0500 UTC 19 Aug 2019
Potential Impact None Slight Moderate High
Time 18/17Z 18/18Z 18/19Z 18/20Z 18/21Z 18/22Z 18/23Z 19/00Z 19/01Z 19/02Z 19/03Z 19/04Z 19/05Z
Temp95 96 95 96 95 95 93 91 88 86 85 84 83
Dewpt79 77 77 76 76 76 76 77 78 79 80 79 79
Altim29.92 29.92 29.90 29.89 29.88 29.87 29.87 29.88 29.88 29.89 29.91 29.93 29.94
VIS10 10 10 10 10 10 10 10 10 10 10 10 10
CIG-- -- -- -- -- -- -- -- -- -- -- -- --
CoverSCTSCTSCTSCTSCTCLRCLRSCTSCTSCTCLRCLRCLR
FltCatVFRVFRVFRVFRVFRVFRVFRVFRVFRVFRVFRVFRVFR
WX--------------------------
WDir180190190170160160160160150140140150150
WSpd14 14 13 14 11 13 13 11 9 7 6 5 4
WGst17 21 21 20 17 -- 16 -- -- -- -- -- --
Raw hourly METARs
KPKV 181655Z AUTO 18014G17KT 10SM SCT032 SCT042 SCT070 35/26 A2992 RMK AO2 T03520262
KPKV 181755Z AUTO 19014G21KT 10SM SCT038 36/25 A2992 RMK AO2 T03580248 10359 20272
KPKV 181855Z AUTO 19013G21KT 10SM SCT037 SCT046 SCT060 35/25 A2990 RMK AO2 T03520249
KPKV 181955Z AUTO 17014G20KT 10SM SCT040 SCT050 36/25 A2989 RMK AO2 T03570245
KPKV 182055Z AUTO 16011G17KT 10SM SCT040 35/25 A2988 RMK AO2 T03520245
KPKV 182155Z AUTO 16013KT 10SM CLR 35/24 A2987 RMK AO2 T03500244
KPKV 182255Z AUTO 16013G16KT 10SM CLR 34/24 A2987 RMK AO2 T03400243
KPKV 182355Z AUTO 16011KT 10SM SCT032 33/25 A2988 RMK AO2 T03290250 10363 20329
KPKV 190055Z AUTO 15009KT 10SM SCT025 31/26 A2988 RMK AO2 T03110256
KPKV 190155Z AUTO 14007KT 10SM SCT025 30/26 A2989 RMK AO2 T02990262
KPKV 190255Z AUTO 14006KT 10SM CLR 30/26 A2991 RMK AO2 T02950264
KPKV 190355Z AUTO 15005KT 10SM CLR 29/26 A2993 RMK AO2 T02880263
KPKV 190455Z AUTO 15004KT 10SM CLR 28/26 A2994 RMK AO2 T02820261



Page loaded:  05:58 UTC  |   10:58 PM Pacific  |   11:58 PM Mountain  |   12:58 AM Central  |   01:58 AM Eastern

 

ADVISORIES

FORECASTS

FORECASTS

OBSERVATIONS

USER TOOLS

ABOUT US